sensor_id;sensor_type;location;lat;lon;timestamp;P1;durP1;ratioP1;P2;durP2;ratioP2
48014;SDS011;33780;51.034;7.120;2022-08-11T00:01:05;2.42;;;1.80;;
48014;SDS011;33780;51.034;7.120;2022-08-11T00:03:34;4.85;;;1.88;;
48014;SDS011;33780;51.034;7.120;2022-08-11T00:06:05;4.05;;;1.95;;
48014;SDS011;33780;51.034;7.120;2022-08-11T00:08:30;3.03;;;1.90;;
48014;SDS011;33780;51.034;7.120;2022-08-11T00:11:05;3.05;;;1.92;;
48014;SDS011;33780;51.034;7.120;2022-08-11T00:15:57;3.20;;;1.90;;
48014;SDS011;33780;51.034;7.120;2022-08-11T00:18:23;3.25;;;2.03;;
48014;SDS011;33780;51.034;7.120;2022-08-11T00:20:49;3.17;;;2.00;;
48014;SDS011;33780;51.034;7.120;2022-08-11T00:23:17;2.55;;;1.70;;
48014;SDS011;33780;51.034;7.120;2022-08-11T00:25:44;3.28;;;2.03;;
48014;SDS011;33780;51.034;7.120;2022-08-11T00:28:33;2.85;;;1.80;;
48014;SDS011;33780;51.034;7.120;2022-08-11T00:30:58;2.85;;;1.90;;
48014;SDS011;33780;51.034;7.120;2022-08-11T00:33:32;2.60;;;1.85;;
48014;SDS011;33780;51.034;7.120;2022-08-11T00:36:02;3.20;;;1.88;;
48014;SDS011;33780;51.034;7.120;2022-08-11T00:38:30;2.70;;;1.80;;
48014;SDS011;33780;51.034;7.120;2022-08-11T00:41:00;2.80;;;1.63;;
48014;SDS011;33780;51.034;7.120;2022-08-11T00:52:24;4.22;;;2.10;;
48014;SDS011;33780;51.034;7.120;2022-08-11T01:01:08;2.75;;;1.90;;
48014;SDS011;33780;51.034;7.120;2022-08-11T01:15:43;3.85;;;2.03;;
48014;SDS011;33780;51.034;7.120;2022-08-11T01:18:43;3.00;;;1.80;;
48014;SDS011;33780;51.034;7.120;2022-08-11T01:47:48;2.83;;;1.90;;
48014;SDS011;33780;51.034;7.120;2022-08-11T01:58:47;3.33;;;2.20;;
48014;SDS011;33780;51.034;7.120;2022-08-11T02:07:48;3.63;;;2.50;;
48014;SDS011;33780;51.034;7.120;2022-08-11T02:10:42;4.03;;;2.60;;
48014;SDS011;33780;51.034;7.120;2022-08-11T02:13:36;4.00;;;2.63;;
48014;SDS011;33780;51.034;7.120;2022-08-11T02:19:04;4.05;;;2.50;;
48014;SDS011;33780;51.034;7.120;2022-08-11T02:25:03;4.00;;;2.33;;
48014;SDS011;33780;51.034;7.120;2022-08-11T02:30:05;5.68;;;2.50;;
48014;SDS011;33780;51.034;7.120;2022-08-11T02:50:25;4.85;;;2.75;;
48014;SDS011;33780;51.034;7.120;2022-08-11T02:52:57;3.60;;;2.63;;
48014;SDS011;33780;51.034;7.120;2022-08-11T02:55:40;4.22;;;2.30;;
48014;SDS011;33780;51.034;7.120;2022-08-11T03:01:15;4.47;;;2.78;;
48014;SDS011;33780;51.034;7.120;2022-08-11T03:03:55;3.67;;;2.67;;
48014;SDS011;33780;51.034;7.120;2022-08-11T03:06:43;4.13;;;2.80;;
48014;SDS011;33780;51.034;7.120;2022-08-11T03:12:08;7.18;;;3.00;;
48014;SDS011;33780;51.034;7.120;2022-08-11T03:15:02;5.55;;;2.97;;
48014;SDS011;33780;51.034;7.120;2022-08-11T03:23:34;5.05;;;2.85;;
48014;SDS011;33780;51.034;7.120;2022-08-11T03:34:33;4.90;;;2.85;;
48014;SDS011;33780;51.034;7.120;2022-08-11T03:37:24;4.18;;;2.60;;
48014;SDS011;33780;51.034;7.120;2022-08-11T03:42:52;6.67;;;3.07;;
48014;SDS011;33780;51.034;7.120;2022-08-11T03:45:29;4.95;;;3.30;;
48014;SDS011;33780;51.034;7.120;2022-08-11T03:51:24;3.90;;;2.75;;
48014;SDS011;33780;51.034;7.120;2022-08-11T03:54:15;4.07;;;2.95;;
48014;SDS011;33780;51.034;7.120;2022-08-11T03:59:40;4.47;;;3.10;;
48014;SDS011;33780;51.034;7.120;2022-08-11T04:05:37;7.05;;;2.72;;
48014;SDS011;33780;51.034;7.120;2022-08-11T04:14:22;4.50;;;2.78;;
48014;SDS011;33780;51.034;7.120;2022-08-11T04:20:28;4.40;;;2.60;;
48014;SDS011;33780;51.034;7.120;2022-08-11T04:28:43;4.38;;;2.88;;
48014;SDS011;33780;51.034;7.120;2022-08-11T04:58:27;4.70;;;2.65;;
48014;SDS011;33780;51.034;7.120;2022-08-11T05:12:44;6.82;;;2.72;;
48014;SDS011;33780;51.034;7.120;2022-08-11T05:15:13;5.00;;;2.78;;
48014;SDS011;33780;51.034;7.120;2022-08-11T05:18:06;4.68;;;2.67;;
48014;SDS011;33780;51.034;7.120;2022-08-11T05:20:56;3.55;;;2.67;;
48014;SDS011;33780;51.034;7.120;2022-08-11T05:23:46;4.30;;;2.90;;
48014;SDS011;33780;51.034;7.120;2022-08-11T05:26:46;3.65;;;2.65;;
48014;SDS011;33780;51.034;7.120;2022-08-11T05:29:45;4.95;;;2.67;;
48014;SDS011;33780;51.034;7.120;2022-08-11T05:33:02;8.23;;;2.58;;
48014;SDS011;33780;51.034;7.120;2022-08-11T05:36:09;4.70;;;2.67;;
48014;SDS011;33780;51.034;7.120;2022-08-11T05:39:12;3.78;;;2.65;;
48014;SDS011;33780;51.034;7.120;2022-08-11T05:42:22;5.63;;;2.85;;
48014;SDS011;33780;51.034;7.120;2022-08-11T05:45:16;5.38;;;2.72;;
48014;SDS011;33780;51.034;7.120;2022-08-11T05:48:28;5.18;;;2.92;;
48014;SDS011;33780;51.034;7.120;2022-08-11T05:51:40;4.97;;;2.65;;
48014;SDS011;33780;51.034;7.120;2022-08-11T05:57:32;4.00;;;2.53;;
48014;SDS011;33780;51.034;7.120;2022-08-11T06:00:03;4.93;;;2.83;;
48014;SDS011;33780;51.034;7.120;2022-08-11T06:02:42;3.88;;;2.53;;
48014;SDS011;33780;51.034;7.120;2022-08-11T06:08:30;4.95;;;2.72;;
48014;SDS011;33780;51.034;7.120;2022-08-11T06:11:00;4.20;;;2.50;;
48014;SDS011;33780;51.034;7.120;2022-08-11T06:13:29;6.85;;;2.80;;
48014;SDS011;33780;51.034;7.120;2022-08-11T06:15:55;5.80;;;2.47;;
48014;SDS011;33780;51.034;7.120;2022-08-11T06:18:22;9.68;;;2.50;;
48014;SDS011;33780;51.034;7.120;2022-08-11T06:20:49;4.90;;;2.40;;
48014;SDS011;33780;51.034;7.120;2022-08-11T06:23:17;4.80;;;2.70;;
48014;SDS011;33780;51.034;7.120;2022-08-11T06:25:47;5.15;;;2.30;;
48014;SDS011;33780;51.034;7.120;2022-08-11T06:28:13;8.15;;;2.92;;
48014;SDS011;33780;51.034;7.120;2022-08-11T06:30:43;5.63;;;2.70;;
48014;SDS011;33780;51.034;7.120;2022-08-11T06:46:29;6.97;;;2.55;;
48014;SDS011;33780;51.034;7.120;2022-08-11T06:48:59;4.68;;;1.98;;
48014;SDS011;33780;51.034;7.120;2022-08-11T06:51:26;2.90;;;2.20;;
48014;SDS011;33780;51.034;7.120;2022-08-11T06:53:53;3.50;;;2.20;;
48014;SDS011;33780;51.034;7.120;2022-08-11T06:56:36;2.97;;;1.98;;
48014;SDS011;33780;51.034;7.120;2022-08-11T06:59:21;4.80;;;2.20;;
48014;SDS011;33780;51.034;7.120;2022-08-11T07:02:08;4.18;;;2.20;;
48014;SDS011;33780;51.034;7.120;2022-08-11T07:13:49;4.88;;;2.10;;
48014;SDS011;33780;51.034;7.120;2022-08-11T07:16:37;3.38;;;2.08;;
48014;SDS011;33780;51.034;7.120;2022-08-11T07:19:06;3.97;;;2.10;;
48014;SDS011;33780;51.034;7.120;2022-08-11T07:21:50;4.00;;;2.13;;
48014;SDS011;33780;51.034;7.120;2022-08-11T07:28:03;4.97;;;2.20;;
48014;SDS011;33780;51.034;7.120;2022-08-11T07:30:44;3.05;;;2.00;;
48014;SDS011;33780;51.034;7.120;2022-08-11T07:33:11;4.85;;;2.30;;
48014;SDS011;33780;51.034;7.120;2022-08-11T07:35:42;2.70;;;1.75;;
48014;SDS011;33780;51.034;7.120;2022-08-11T07:38:20;2.92;;;1.95;;
48014;SDS011;33780;51.034;7.120;2022-08-11T07:40:47;3.40;;;2.20;;
48014;SDS011;33780;51.034;7.120;2022-08-11T07:43:13;3.80;;;2.20;;
48014;SDS011;33780;51.034;7.120;2022-08-11T07:45:41;3.00;;;1.90;;
48014;SDS011;33780;51.034;7.120;2022-08-11T07:48:32;4.13;;;2.15;;
48014;SDS011;33780;51.034;7.120;2022-08-11T07:51:19;4.68;;;1.90;;
48014;SDS011;33780;51.034;7.120;2022-08-11T07:54:04;3.70;;;2.00;;
48014;SDS011;33780;51.034;7.120;2022-08-11T07:56:36;3.42;;;1.90;;
48014;SDS011;33780;51.034;7.120;2022-08-11T08:01:48;4.60;;;2.13;;
48014;SDS011;33780;51.034;7.120;2022-08-11T08:04:33;4.50;;;2.03;;
48014;SDS011;33780;51.034;7.120;2022-08-11T08:07:18;2.90;;;1.90;;
48014;SDS011;33780;51.034;7.120;2022-08-11T08:10:04;3.10;;;2.20;;
48014;SDS011;33780;51.034;7.120;2022-08-11T08:12:49;3.63;;;2.00;;
48014;SDS011;33780;51.034;7.120;2022-08-11T08:15:33;4.38;;;1.88;;
48014;SDS011;33780;51.034;7.120;2022-08-11T08:18:17;3.90;;;1.98;;
48014;SDS011;33780;51.034;7.120;2022-08-11T08:20:47;3.03;;;1.98;;
48014;SDS011;33780;51.034;7.120;2022-08-11T08:23:17;3.13;;;2.00;;
48014;SDS011;33780;51.034;7.120;2022-08-11T08:25:57;2.97;;;1.85;;
48014;SDS011;33780;51.034;7.120;2022-08-11T08:28:25;2.72;;;1.95;;
48014;SDS011;33780;51.034;7.120;2022-08-11T08:30:52;4.03;;;1.95;;
48014;SDS011;33780;51.034;7.120;2022-08-11T08:33:22;3.03;;;2.00;;
48014;SDS011;33780;51.034;7.120;2022-08-11T08:35:52;2.45;;;1.90;;
48014;SDS011;33780;51.034;7.120;2022-08-11T08:38:41;2.67;;;1.88;;
48014;SDS011;33780;51.034;7.120;2022-08-11T08:41:11;3.08;;;2.00;;
48014;SDS011;33780;51.034;7.120;2022-08-11T08:43:38;6.78;;;1.85;;
48014;SDS011;33780;51.034;7.120;2022-08-11T08:46:08;2.70;;;1.80;;
48014;SDS011;33780;51.034;7.120;2022-08-11T08:48:34;3.97;;;1.98;;
48014;SDS011;33780;51.034;7.120;2022-08-11T08:51:01;3.45;;;1.90;;
48014;SDS011;33780;51.034;7.120;2022-08-11T08:53:49;3.28;;;1.90;;
48014;SDS011;33780;51.034;7.120;2022-08-11T08:56:16;3.38;;;1.85;;
48014;SDS011;33780;51.034;7.120;2022-08-11T08:58:44;2.60;;;1.90;;
48014;SDS011;33780;51.034;7.120;2022-08-11T09:01:12;2.47;;;1.70;;
48014;SDS011;33780;51.034;7.120;2022-08-11T09:03:40;3.40;;;1.83;;
48014;SDS011;33780;51.034;7.120;2022-08-11T09:06:07;2.92;;;1.90;;
48014;SDS011;33780;51.034;7.120;2022-08-11T09:08:33;2.92;;;1.60;;
48014;SDS011;33780;51.034;7.120;2022-08-11T09:11:00;3.35;;;1.95;;
48014;SDS011;33780;51.034;7.120;2022-08-11T09:13:48;3.72;;;1.70;;
48014;SDS011;33780;51.034;7.120;2022-08-11T09:16:15;3.55;;;2.33;;
48014;SDS011;33780;51.034;7.120;2022-08-11T09:18:42;2.40;;;1.60;;
48014;SDS011;33780;51.034;7.120;2022-08-11T09:21:10;3.58;;;1.80;;
48014;SDS011;33780;51.034;7.120;2022-08-11T09:23:38;2.28;;;1.63;;
48014;SDS011;33780;51.034;7.120;2022-08-11T09:26:23;3.28;;;1.70;;
48014;SDS011;33780;51.034;7.120;2022-08-11T09:29:08;2.95;;;1.88;;
48014;SDS011;33780;51.034;7.120;2022-08-11T09:31:35;2.95;;;1.83;;
48014;SDS011;33780;51.034;7.120;2022-08-11T09:34:01;2.63;;;1.80;;
48014;SDS011;33780;51.034;7.120;2022-08-11T09:36:27;3.85;;;1.80;;
48014;SDS011;33780;51.034;7.120;2022-08-11T09:39:11;4.47;;;2.20;;
48014;SDS011;33780;51.034;7.120;2022-08-11T09:41:56;4.43;;;1.67;;
48014;SDS011;33780;51.034;7.120;2022-08-11T09:44:25;2.25;;;1.73;;
48014;SDS011;33780;51.034;7.120;2022-08-11T09:47:09;3.15;;;2.03;;
48014;SDS011;33780;51.034;7.120;2022-08-11T09:49:40;2.60;;;1.90;;
48014;SDS011;33780;51.034;7.120;2022-08-11T09:52:09;2.72;;;1.60;;
48014;SDS011;33780;51.034;7.120;2022-08-11T09:54:34;2.58;;;1.70;;
48014;SDS011;33780;51.034;7.120;2022-08-11T09:57:00;2.10;;;1.63;;
48014;SDS011;33780;51.034;7.120;2022-08-11T09:59:44;2.83;;;1.80;;
48014;SDS011;33780;51.034;7.120;2022-08-11T10:02:11;3.33;;;1.70;;
48014;SDS011;33780;51.034;7.120;2022-08-11T10:04:39;2.88;;;1.80;;
48014;SDS011;33780;51.034;7.120;2022-08-11T10:07:06;4.00;;;1.90;;
48014;SDS011;33780;51.034;7.120;2022-08-11T10:12:22;3.08;;;1.75;;
48014;SDS011;33780;51.034;7.120;2022-08-11T10:14:54;3.15;;;1.65;;
48014;SDS011;33780;51.034;7.120;2022-08-11T10:17:42;2.47;;;1.80;;
48014;SDS011;33780;51.034;7.120;2022-08-11T10:20:31;2.75;;;1.60;;
48014;SDS011;33780;51.034;7.120;2022-08-11T10:23:01;6.80;;;1.92;;
48014;SDS011;33780;51.034;7.120;2022-08-11T10:25:46;3.88;;;2.00;;
48014;SDS011;33780;51.034;7.120;2022-08-11T10:28:31;2.83;;;1.75;;
48014;SDS011;33780;51.034;7.120;2022-08-11T10:30:59;3.10;;;1.83;;
48014;SDS011;33780;51.034;7.120;2022-08-11T10:33:44;3.92;;;1.80;;
48014;SDS011;33780;51.034;7.120;2022-08-11T10:38:58;2.42;;;1.70;;
48014;SDS011;33780;51.034;7.120;2022-08-11T10:41:25;5.47;;;1.80;;
48014;SDS011;33780;51.034;7.120;2022-08-11T10:44:11;2.25;;;1.55;;
48014;SDS011;33780;51.034;7.120;2022-08-11T10:46:38;2.50;;;1.90;;
48014;SDS011;33780;51.034;7.120;2022-08-11T10:49:22;2.45;;;1.90;;
48014;SDS011;33780;51.034;7.120;2022-08-11T10:51:50;2.72;;;1.83;;
48014;SDS011;33780;51.034;7.120;2022-08-11T10:54:38;3.08;;;2.20;;
48014;SDS011;33780;51.034;7.120;2022-08-11T10:57:23;2.63;;;1.90;;
48014;SDS011;33780;51.034;7.120;2022-08-11T11:00:08;3.20;;;2.05;;
48014;SDS011;33780;51.034;7.120;2022-08-11T11:02:39;2.47;;;1.80;;
48014;SDS011;33780;51.034;7.120;2022-08-11T11:05:09;6.03;;;1.98;;
48014;SDS011;33780;51.034;7.120;2022-08-11T11:07:58;3.08;;;1.73;;
48014;SDS011;33780;51.034;7.120;2022-08-11T11:10:56;2.88;;;2.08;;
48014;SDS011;33780;51.034;7.120;2022-08-11T11:13:23;3.10;;;2.00;;
48014;SDS011;33780;51.034;7.120;2022-08-11T11:16:13;2.97;;;1.90;;
48014;SDS011;33780;51.034;7.120;2022-08-11T11:19:08;2.63;;;1.90;;
48014;SDS011;33780;51.034;7.120;2022-08-11T11:21:36;3.05;;;2.15;;
48014;SDS011;33780;51.034;7.120;2022-08-11T11:24:15;4.10;;;2.05;;
48014;SDS011;33780;51.034;7.120;2022-08-11T11:27:10;2.63;;;1.80;;
48014;SDS011;33780;51.034;7.120;2022-08-11T11:29:48;2.67;;;1.85;;
48014;SDS011;33780;51.034;7.120;2022-08-11T11:32:23;3.42;;;1.90;;
48014;SDS011;33780;51.034;7.120;2022-08-11T11:37:36;3.70;;;2.10;;
48014;SDS011;33780;51.034;7.120;2022-08-11T11:40:23;2.65;;;1.88;;
48014;SDS011;33780;51.034;7.120;2022-08-11T11:42:50;4.18;;;1.90;;
48014;SDS011;33780;51.034;7.120;2022-08-11T11:45:20;4.63;;;1.90;;
48014;SDS011;33780;51.034;7.120;2022-08-11T11:47:47;2.53;;;1.80;;
48014;SDS011;33780;51.034;7.120;2022-08-11T11:50:27;2.83;;;1.80;;
48014;SDS011;33780;51.034;7.120;2022-08-11T11:52:55;2.50;;;1.67;;
48014;SDS011;33780;51.034;7.120;2022-08-11T11:55:23;2.67;;;1.90;;
48014;SDS011;33780;51.034;7.120;2022-08-11T11:57:53;3.90;;;1.90;;
48014;SDS011;33780;51.034;7.120;2022-08-11T12:00:39;4.93;;;2.10;;
48014;SDS011;33780;51.034;7.120;2022-08-11T12:03:23;2.30;;;1.63;;
48014;SDS011;33780;51.034;7.120;2022-08-11T12:05:50;2.92;;;1.90;;
48014;SDS011;33780;51.034;7.120;2022-08-11T12:08:17;4.22;;;2.05;;
48014;SDS011;33780;51.034;7.120;2022-08-11T12:10:46;4.63;;;1.95;;
48014;SDS011;33780;51.034;7.120;2022-08-11T12:13:39;3.45;;;2.25;;
48014;SDS011;33780;51.034;7.120;2022-08-11T12:16:07;3.13;;;2.00;;
48014;SDS011;33780;51.034;7.120;2022-08-11T12:18:34;2.80;;;2.00;;
48014;SDS011;33780;51.034;7.120;2022-08-11T12:21:00;3.55;;;1.92;;
48014;SDS011;33780;51.034;7.120;2022-08-11T12:23:30;6.40;;;2.08;;
48014;SDS011;33780;51.034;7.120;2022-08-11T12:26:17;3.00;;;1.90;;
48014;SDS011;33780;51.034;7.120;2022-08-11T12:29:02;2.83;;;1.70;;
48014;SDS011;33780;51.034;7.120;2022-08-11T12:31:29;3.10;;;2.00;;
48014;SDS011;33780;51.034;7.120;2022-08-11T12:34:09;2.55;;;1.88;;
48014;SDS011;33780;51.034;7.120;2022-08-11T12:36:38;2.97;;;2.03;;
48014;SDS011;33780;51.034;7.120;2022-08-11T12:39:05;3.67;;;2.05;;
48014;SDS011;33780;51.034;7.120;2022-08-11T12:41:34;2.88;;;1.92;;
48014;SDS011;33780;51.034;7.120;2022-08-11T12:44:19;3.28;;;2.05;;
48014;SDS011;33780;51.034;7.120;2022-08-11T12:47:07;2.90;;;1.80;;
48014;SDS011;33780;51.034;7.120;2022-08-11T12:49:35;4.13;;;2.08;;
48014;SDS011;33780;51.034;7.120;2022-08-11T12:52:26;3.13;;;2.15;;
48014;SDS011;33780;51.034;7.120;2022-08-11T12:54:58;2.88;;;2.00;;
48014;SDS011;33780;51.034;7.120;2022-08-11T12:57:45;2.58;;;1.90;;
48014;SDS011;33780;51.034;7.120;2022-08-11T13:00:30;2.88;;;1.80;;
48014;SDS011;33780;51.034;7.120;2022-08-11T13:03:17;3.58;;;2.70;;
48014;SDS011;33780;51.034;7.120;2022-08-11T13:06:03;4.03;;;2.28;;
48014;SDS011;33780;51.034;7.120;2022-08-11T13:08:30;3.17;;;2.28;;
48014;SDS011;33780;51.034;7.120;2022-08-11T13:10:59;3.08;;;1.77;;
48014;SDS011;33780;51.034;7.120;2022-08-11T13:13:45;2.90;;;2.05;;
48014;SDS011;33780;51.034;7.120;2022-08-11T13:16:12;2.17;;;1.80;;
48014;SDS011;33780;51.034;7.120;2022-08-11T13:18:39;2.97;;;2.05;;
48014;SDS011;33780;51.034;7.120;2022-08-11T13:21:06;3.55;;;2.28;;
48014;SDS011;33780;51.034;7.120;2022-08-11T13:23:34;3.03;;;2.10;;
48014;SDS011;33780;51.034;7.120;2022-08-11T13:26:02;3.22;;;2.10;;
48014;SDS011;33780;51.034;7.120;2022-08-11T13:28:27;3.30;;;1.90;;
48014;SDS011;33780;51.034;7.120;2022-08-11T13:30:53;2.72;;;2.00;;
48014;SDS011;33780;51.034;7.120;2022-08-11T13:33:37;4.57;;;2.20;;
48014;SDS011;33780;51.034;7.120;2022-08-11T13:36:06;5.28;;;2.30;;
48014;SDS011;33780;51.034;7.120;2022-08-11T13:38:32;3.08;;;2.13;;
48014;SDS011;33780;51.034;7.120;2022-08-11T13:40:59;3.97;;;2.00;;
48014;SDS011;33780;51.034;7.120;2022-08-11T13:43:25;2.38;;;1.98;;
48014;SDS011;33780;51.034;7.120;2022-08-11T13:45:51;2.25;;;1.85;;
48014;SDS011;33780;51.034;7.120;2022-08-11T13:48:38;2.55;;;1.90;;
48014;SDS011;33780;51.034;7.120;2022-08-11T13:51:05;2.58;;;2.05;;
48014;SDS011;33780;51.034;7.120;2022-08-11T13:53:51;2.42;;;1.80;;
48014;SDS011;33780;51.034;7.120;2022-08-11T13:56:17;2.78;;;2.03;;
48014;SDS011;33780;51.034;7.120;2022-08-11T13:58:43;2.72;;;1.88;;
48014;SDS011;33780;51.034;7.120;2022-08-11T14:01:09;2.60;;;1.98;;
48014;SDS011;33780;51.034;7.120;2022-08-11T14:03:35;3.20;;;1.80;;
48014;SDS011;33780;51.034;7.120;2022-08-11T14:06:05;3.75;;;1.90;;
48014;SDS011;33780;51.034;7.120;2022-08-11T14:08:34;3.38;;;1.90;;
48014;SDS011;33780;51.034;7.120;2022-08-11T14:11:03;3.75;;;1.83;;
48014;SDS011;33780;51.034;7.120;2022-08-11T14:13:49;2.60;;;1.80;;
48014;SDS011;33780;51.034;7.120;2022-08-11T14:16:33;2.75;;;2.17;;
48014;SDS011;33780;51.034;7.120;2022-08-11T14:19:06;2.92;;;2.00;;
48014;SDS011;33780;51.034;7.120;2022-08-11T14:21:36;2.67;;;1.73;;
48014;SDS011;33780;51.034;7.120;2022-08-11T14:24:25;2.20;;;1.67;;
48014;SDS011;33780;51.034;7.120;2022-08-11T14:26:54;2.90;;;2.00;;
48014;SDS011;33780;51.034;7.120;2022-08-11T14:29:20;3.15;;;2.10;;
48014;SDS011;33780;51.034;7.120;2022-08-11T14:31:53;3.45;;;2.08;;
48014;SDS011;33780;51.034;7.120;2022-08-11T14:34:26;3.75;;;1.95;;
48014;SDS011;33780;51.034;7.120;2022-08-11T14:39:25;2.20;;;1.80;;
48014;SDS011;33780;51.034;7.120;2022-08-11T14:41:53;2.85;;;1.92;;
48014;SDS011;33780;51.034;7.120;2022-08-11T14:44:51;3.38;;;2.08;;
48014;SDS011;33780;51.034;7.120;2022-08-11T14:47:39;3.45;;;2.10;;
48014;SDS011;33780;51.034;7.120;2022-08-11T14:50:09;3.38;;;2.00;;
48014;SDS011;33780;51.034;7.120;2022-08-11T14:57:55;3.97;;;2.03;;
48014;SDS011;33780;51.034;7.120;2022-08-11T15:13:27;5.43;;;2.05;;
48014;SDS011;33780;51.034;7.120;2022-08-11T15:16:04;2.88;;;1.95;;
48014;SDS011;33780;51.034;7.120;2022-08-11T15:18:48;2.75;;;1.98;;
48014;SDS011;33780;51.034;7.120;2022-08-11T15:21:14;3.67;;;2.00;;
48014;SDS011;33780;51.034;7.120;2022-08-11T15:23:58;3.75;;;2.33;;
48014;SDS011;33780;51.034;7.120;2022-08-11T15:26:42;2.63;;;1.98;;
48014;SDS011;33780;51.034;7.120;2022-08-11T15:29:27;3.85;;;2.30;;
48014;SDS011;33780;51.034;7.120;2022-08-11T15:32:12;2.65;;;2.10;;
48014;SDS011;33780;51.034;7.120;2022-08-11T15:34:48;4.38;;;2.25;;
48014;SDS011;33780;51.034;7.120;2022-08-11T15:37:40;2.88;;;2.10;;
48014;SDS011;33780;51.034;7.120;2022-08-11T15:40:10;3.17;;;2.15;;
48014;SDS011;33780;51.034;7.120;2022-08-11T15:46:33;3.83;;;2.35;;
48014;SDS011;33780;51.034;7.120;2022-08-11T15:49:12;3.80;;;2.30;;
48014;SDS011;33780;51.034;7.120;2022-08-11T16:25:04;3.13;;;2.10;;
48014;SDS011;33780;51.034;7.120;2022-08-11T16:32:48;2.90;;;2.10;;
48014;SDS011;33780;51.034;7.120;2022-08-11T16:35:17;2.85;;;1.98;;
48014;SDS011;33780;51.034;7.120;2022-08-11T16:38:03;3.03;;;2.10;;
48014;SDS011;33780;51.034;7.120;2022-08-11T16:40:49;2.80;;;2.00;;
48014;SDS011;33780;51.034;7.120;2022-08-11T16:43:17;2.50;;;1.83;;
48014;SDS011;33780;51.034;7.120;2022-08-11T16:46:22;2.47;;;1.95;;
48014;SDS011;33780;51.034;7.120;2022-08-11T16:49:09;3.15;;;2.00;;
48014;SDS011;33780;51.034;7.120;2022-08-11T16:55:35;4.18;;;2.08;;
48014;SDS011;33780;51.034;7.120;2022-08-11T16:58:04;3.17;;;2.20;;
48014;SDS011;33780;51.034;7.120;2022-08-11T17:00:51;3.30;;;2.17;;
48014;SDS011;33780;51.034;7.120;2022-08-11T17:03:35;4.40;;;2.20;;
48014;SDS011;33780;51.034;7.120;2022-08-11T17:06:57;2.55;;;2.05;;
48014;SDS011;33780;51.034;7.120;2022-08-11T17:10:23;2.55;;;2.00;;
48014;SDS011;33780;51.034;7.120;2022-08-11T17:16:34;3.95;;;2.30;;
48014;SDS011;33780;51.034;7.120;2022-08-11T17:19:12;4.78;;;2.15;;
48014;SDS011;33780;51.034;7.120;2022-08-11T17:22:10;3.03;;;2.10;;
48014;SDS011;33780;51.034;7.120;2022-08-11T17:25:23;3.50;;;2.10;;
48014;SDS011;33780;51.034;7.120;2022-08-11T17:28:44;4.07;;;2.17;;
48014;SDS011;33780;51.034;7.120;2022-08-11T17:41:02;3.17;;;2.10;;
48014;SDS011;33780;51.034;7.120;2022-08-11T17:43:47;4.07;;;2.00;;
48014;SDS011;33780;51.034;7.120;2022-08-11T17:46:33;3.00;;;2.20;;
48014;SDS011;33780;51.034;7.120;2022-08-11T17:49:21;2.80;;;2.13;;
48014;SDS011;33780;51.034;7.120;2022-08-11T17:51:48;3.00;;;2.30;;
48014;SDS011;33780;51.034;7.120;2022-08-11T17:54:34;2.97;;;2.30;;
48014;SDS011;33780;51.034;7.120;2022-08-11T17:57:20;2.97;;;2.30;;
48014;SDS011;33780;51.034;7.120;2022-08-11T18:00:16;3.03;;;2.10;;
48014;SDS011;33780;51.034;7.120;2022-08-11T18:02:42;2.63;;;1.88;;
48014;SDS011;33780;51.034;7.120;2022-08-11T18:05:28;3.58;;;2.35;;
48014;SDS011;33780;51.034;7.120;2022-08-11T18:08:12;3.28;;;2.10;;
48014;SDS011;33780;51.034;7.120;2022-08-11T18:10:57;2.58;;;2.25;;
48014;SDS011;33780;51.034;7.120;2022-08-11T18:13:46;5.78;;;2.38;;
48014;SDS011;33780;51.034;7.120;2022-08-11T18:19:47;2.92;;;2.30;;
48014;SDS011;33780;51.034;7.120;2022-08-11T18:22:35;2.95;;;2.25;;
48014;SDS011;33780;51.034;7.120;2022-08-11T18:25:26;6.60;;;2.40;;
48014;SDS011;33780;51.034;7.120;2022-08-11T18:28:18;3.20;;;2.20;;
48014;SDS011;33780;51.034;7.120;2022-08-11T18:31:06;3.75;;;2.30;;
48014;SDS011;33780;51.034;7.120;2022-08-11T18:33:55;4.82;;;2.33;;
48014;SDS011;33780;51.034;7.120;2022-08-11T18:36:41;4.72;;;2.10;;
48014;SDS011;33780;51.034;7.120;2022-08-11T18:39:33;3.42;;;2.50;;
48014;SDS011;33780;51.034;7.120;2022-08-11T18:42:22;2.72;;;2.15;;
48014;SDS011;33780;51.034;7.120;2022-08-11T18:45:09;2.83;;;2.40;;
48014;SDS011;33780;51.034;7.120;2022-08-11T18:47:57;3.53;;;2.70;;
48014;SDS011;33780;51.034;7.120;2022-08-11T18:50:46;3.45;;;2.47;;
48014;SDS011;33780;51.034;7.120;2022-08-11T18:53:30;4.30;;;2.92;;
48014;SDS011;33780;51.034;7.120;2022-08-11T18:56:18;3.90;;;2.50;;
48014;SDS011;33780;51.034;7.120;2022-08-11T18:59:03;5.38;;;2.83;;
48014;SDS011;33780;51.034;7.120;2022-08-11T19:01:50;5.57;;;2.65;;
48014;SDS011;33780;51.034;7.120;2022-08-11T19:04:39;3.65;;;2.42;;
48014;SDS011;33780;51.034;7.120;2022-08-11T19:07:23;5.75;;;2.90;;
48014;SDS011;33780;51.034;7.120;2022-08-11T19:10:08;4.82;;;2.58;;
48014;SDS011;33780;51.034;7.120;2022-08-11T19:12:53;4.00;;;2.90;;
48014;SDS011;33780;51.034;7.120;2022-08-11T19:15:39;4.78;;;3.08;;
48014;SDS011;33780;51.034;7.120;2022-08-11T19:18:25;5.72;;;2.97;;
48014;SDS011;33780;51.034;7.120;2022-08-11T19:21:12;5.60;;;2.90;;
48014;SDS011;33780;51.034;7.120;2022-08-11T19:23:58;7.25;;;3.13;;
48014;SDS011;33780;51.034;7.120;2022-08-11T19:26:45;6.63;;;2.80;;
48014;SDS011;33780;51.034;7.120;2022-08-11T19:29:32;4.47;;;2.90;;
48014;SDS011;33780;51.034;7.120;2022-08-11T19:32:18;3.80;;;2.78;;
48014;SDS011;33780;51.034;7.120;2022-08-11T19:35:04;5.28;;;3.15;;
48014;SDS011;33780;51.034;7.120;2022-08-11T19:37:49;5.47;;;2.72;;
48014;SDS011;33780;51.034;7.120;2022-08-11T19:40:36;4.05;;;2.80;;
48014;SDS011;33780;51.034;7.120;2022-08-11T19:43:21;3.63;;;2.72;;
48014;SDS011;33780;51.034;7.120;2022-08-11T19:46:07;3.40;;;2.67;;
48014;SDS011;33780;51.034;7.120;2022-08-11T19:48:53;3.67;;;2.80;;
48014;SDS011;33780;51.034;7.120;2022-08-11T19:51:39;3.92;;;2.63;;
48014;SDS011;33780;51.034;7.120;2022-08-11T19:54:26;4.65;;;3.10;;
48014;SDS011;33780;51.034;7.120;2022-08-11T19:57:12;5.18;;;2.97;;
48014;SDS011;33780;51.034;7.120;2022-08-11T19:59:57;7.32;;;2.83;;
48014;SDS011;33780;51.034;7.120;2022-08-11T20:02:42;4.70;;;2.80;;
48014;SDS011;33780;51.034;7.120;2022-08-11T20:05:27;3.30;;;2.78;;
48014;SDS011;33780;51.034;7.120;2022-08-11T20:08:13;3.85;;;2.90;;
48014;SDS011;33780;51.034;7.120;2022-08-11T20:10:59;3.83;;;3.08;;
48014;SDS011;33780;51.034;7.120;2022-08-11T20:13:46;3.78;;;2.60;;
48014;SDS011;33780;51.034;7.120;2022-08-11T20:16:31;4.63;;;3.08;;
48014;SDS011;33780;51.034;7.120;2022-08-11T20:19:16;5.03;;;2.70;;
48014;SDS011;33780;51.034;7.120;2022-08-11T20:22:02;3.83;;;2.70;;
48014;SDS011;33780;51.034;7.120;2022-08-11T20:24:47;4.15;;;2.88;;
48014;SDS011;33780;51.034;7.120;2022-08-11T20:27:33;4.22;;;2.90;;
48014;SDS011;33780;51.034;7.120;2022-08-11T20:30:20;5.07;;;2.88;;
48014;SDS011;33780;51.034;7.120;2022-08-11T20:33:05;4.07;;;3.03;;
48014;SDS011;33780;51.034;7.120;2022-08-11T20:35:51;3.67;;;2.95;;
48014;SDS011;33780;51.034;7.120;2022-08-11T20:38:36;3.42;;;2.70;;
48014;SDS011;33780;51.034;7.120;2022-08-11T20:41:21;4.43;;;3.03;;
48014;SDS011;33780;51.034;7.120;2022-08-11T20:44:06;5.82;;;2.95;;
48014;SDS011;33780;51.034;7.120;2022-08-11T20:46:51;3.95;;;2.80;;
48014;SDS011;33780;51.034;7.120;2022-08-11T20:49:37;3.65;;;2.90;;
48014;SDS011;33780;51.034;7.120;2022-08-11T20:52:25;3.50;;;2.92;;
48014;SDS011;33780;51.034;7.120;2022-08-11T20:55:11;5.70;;;2.90;;
48014;SDS011;33780;51.034;7.120;2022-08-11T20:57:59;7.70;;;3.30;;
48014;SDS011;33780;51.034;7.120;2022-08-11T21:00:44;5.28;;;2.95;;
48014;SDS011;33780;51.034;7.120;2022-08-11T21:03:29;4.82;;;3.10;;
48014;SDS011;33780;51.034;7.120;2022-08-11T21:06:13;6.05;;;3.05;;
48014;SDS011;33780;51.034;7.120;2022-08-11T21:09:02;4.07;;;3.30;;